Historyczne dane pomiarowe

Dodano dane terminowe – wersja testowa.

Dane z okresu 1951-2019

Wersja bazy: 1.34 [2019-03-16, lista zmian], aktualizacja planowana na 2019-04-15

Dane meteo z obszaru Polski uzyskane na podstawie danych udostępnionych przez Instytut Meteorologii i Gospodarki Wodnej – Państwowy Instytut Badawczy.

 

Wybierz Datę:    

       

TemperaturaWilgotnośćWiatrCiśnienieOpadyŚniegCzas trwania zjawisk
 Stacja t tx tn tng RH VA  wxwx mslp ppp RRR   cm mm wxwxwxwxwxwxwx
1983-08-14 13.2 18.6 9.2 5.5 81.0- 4.3 4.7---- 0.0------------
1983-08-13 15.4 20.4 12.9 12.8 85.0- 7.0 6.7---- 1.0------------
1983-08-12 20.0 26.5 12.8 9.8 77.8- 0.3 1.7---- 5.0------------
1983-08-11 19.5 26.2 13.5 10.5 78.0- 0.0 1.0---- 0.0------------
1983-08-10 20.5 26.3 15.0 12.4 77.0- 4.3 1.0---- 0.0------------
1983-08-09 19.5 25.5 16.0 14.9 85.5- 7.0 1.3---- 4.3------------
1983-08-08 18.0 22.3 15.6 15.2 94.5- 7.0 2.7---- 6.4------------
1983-08-07 14.8 17.6 13.2 11.6 95.8- 8.0 1.3---- 1.6------------
1983-08-06 15.2 18.6 8.0 7.5 82.5- 6.3 2.3---- 0.0------------
1983-08-05 13.4 17.3 7.9 5.6 82.5- 6.0 2.7---- 2.2------------
1983-08-04 11.1 13.0 10.5 10.3 91.3- 8.0 7.7---- 3.2------------
1983-08-03 15.6 20.7 12.9 9.3 97.0- 8.0 6.7---- 5.6------------
1983-08-02 21.7 29.2 19.2 15.4 80.0- 6.7 2.7---- 4.2------------
1983-08-01 23.7 34.0 11.7 7.0 56.5- 0.0 4.3---- 0.0------------
1983-07-31 19.6 28.3 9.6 5.7 59.3- 0.0 0.3---- 0.0------------
1983-07-30 20.2 25.2 16.5 15.1 71.3- 7.3 7.7---- 0.0------------
1983-07-29 20.7 25.3 16.8 12.9 68.5- 6.3 6.7---- 2.0------------
1983-07-28 25.0 31.2 21.3 18.2 62.5- 6.0 5.3---- 0.0------------
1983-07-27 24.5 36.0 13.5 10.7 64.8- 0.0 0.7---- 0.0------------
1983-07-26 20.9 29.7 10.9 8.3 62.8- 0.0 0.7---- 0.0------------
1983-07-25 17.8 24.4 12.0 9.4 75.0- 3.0 0.7---- 0.0------------
1983-07-24 19.3 25.8 11.0 8.0 71.0- 2.7 4.3---- 3.3------------
1983-07-23 19.8 25.0 14.7 9.5 71.5- 2.0 5.3---- 0.0------------
1983-07-22 14.6 18.0 10.4 6.6 81.5- 8.0 6.0---- 0.0------------
1983-07-21 14.1 17.8 10.9 8.8 67.5- 4.7 6.7---- 0.0------------
1983-07-20 15.4 23.8 12.1 13.0 88.0- 7.7 6.0---- 6.5------------
1983-07-19 23.3 28.7 19.2 15.8 70.5- 2.7 3.3---- 8.7------------
1983-07-18 25.0 34.3 14.7 12.2 62.8- 0.0 2.0---- 0.0------------
1983-07-17 22.1 28.5 15.0 12.7 74.3- 2.0 1.7---- 0.0------------
1983-07-16 20.8 29.7 13.2 10.8 78.8- 4.7 1.0---- 1.9------------
1983-07-15 21.3 26.3 14.5 12.5 74.5- 3.3 3.0---- 0.0------------
1983-07-14 18.8 22.0 16.5 16.5 81.5- 7.3 6.0---- 0.0------------
1983-07-13 21.2 26.4 15.5 13.7 77.8- 6.3 4.0---- 0.7------------
1983-07-12 20.3 29.5 17.0 14.8 83.3- 7.0 3.3---- 18.6------------
1983-07-11 21.2 29.2 16.7 12.6 78.0- 5.7 2.3---- 2.7------------
1983-07-10 23.2 30.4 14.2 10.8 62.5- 0.7 1.3---- 0.0------------
1983-07-09 22.2 29.5 10.9 7.4 57.8- 0.7 0.3---- 0.0------------
1983-07-08 22.0 28.7 13.0 8.5 52.3- 0.0 2.0---- 0.0------------
1983-07-07 23.4 31.4 15.2 11.3 64.8- 1.3 3.0---- 0.0------------
1983-07-06 22.1 30.4 12.4 8.9 67.5- 0.0 0.7---- 0.0------------
1983-07-05 20.9 26.7 13.3 9.6 70.0- 0.0 0.7---- 0.0------------
1983-07-04 21.0 27.7 11.5 7.9 63.8- 0.0 0.3---- 0.0------------
1983-07-03 18.5 25.3 10.0 7.3 69.5- 2.0 0.0---- 0.0------------
1983-07-02 18.0 23.0 14.0 14.0 75.8- 3.0 4.0---- 0.0------------
1983-07-01 19.5 26.8 11.1 7.4 69.0- 4.3 2.0---- 2.8------------
1983-06-30 17.9 24.7 9.5 6.6 68.8- 0.0 2.3---- 0.0------------
1983-06-29 15.0 20.8 7.1 3.4 68.8- 1.7 2.0---- 0.0------------
1983-06-28 16.0 20.5 13.9 13.4 78.0- 5.3 3.3---- 0.0------------
1983-06-27 20.8 27.3 17.0 12.9 75.3- 6.7 6.0---- 2.0------------
1983-06-26 20.9 26.2 16.0 12.8 79.3- 0.0 1.3---- 0.0------------
1983-06-25 21.5 29.7 12.9 8.1 68.0- 2.7 4.0---- 0.6------------
1983-06-24 18.5 27.7 7.0 3.9 69.8- 0.0 1.0---- 0.0------------
1983-06-23 15.9 22.7 6.5 2.0 61.0- 0.0 1.0---- 0.0------------
1983-06-22 16.7 22.2 11.1 7.5 66.0- 1.0 1.3---- 0.0------------
1983-06-21 19.5 25.5 11.8 8.3 70.5- 1.7 1.3---- 0.0------------
1983-06-20 17.8 23.0 13.6 13.3 85.0- 6.3 3.7---- 0.2------------
1983-06-19 14.1 16.0 12.6 12.2 93.5- 8.0 3.0---- 3.8------------
1983-06-18 12.1 14.8 9.3 8.3 85.0- 8.0 2.0---- 0.0------------
1983-06-17 12.0 15.4 9.2 7.3 78.0- 6.0 4.0---- 0.0------------
1983-06-16 11.9 16.5 9.4 9.6 78.8- 7.3 5.0---- 0.0------------
402.1 ms

 

Źródłem pochodzenia danych jest Instytut Meteorologii i Gospodarki Wodnej – Państwowy Instytut Badawczy. Dane Instytutu Meteorologii i Gospodarki Wodnej – Państwowego Instytutu Badawczego zostały przetworzone.

Dane źródłowe można odnaleźć na stronie https://dane.imgw.pl